sensor_id;sensor_type;location;lat;lon;timestamp;P1;durP1;ratioP1;P2;durP2;ratioP2
26512;SDS011;14186;53.822;10.152;2022-07-29T00:01:33;5.32;;;2.42;;
26512;SDS011;14186;53.822;10.152;2022-07-29T00:06:33;7.45;;;2.92;;
26512;SDS011;14186;53.822;10.152;2022-07-29T00:11:35;8.20;;;2.78;;
26512;SDS011;14186;53.822;10.152;2022-07-29T00:16:35;7.43;;;3.38;;
26512;SDS011;14186;53.822;10.152;2022-07-29T00:21:35;6.78;;;2.60;;
26512;SDS011;14186;53.822;10.152;2022-07-29T00:26:37;7.05;;;2.60;;
26512;SDS011;14186;53.822;10.152;2022-07-29T00:31:37;5.45;;;2.05;;
26512;SDS011;14186;53.822;10.152;2022-07-29T00:36:37;6.28;;;3.28;;
26512;SDS011;14186;53.822;10.152;2022-07-29T00:41:39;7.60;;;2.65;;
26512;SDS011;14186;53.822;10.152;2022-07-29T00:46:39;5.65;;;2.28;;
26512;SDS011;14186;53.822;10.152;2022-07-29T00:51:39;6.35;;;3.00;;
26512;SDS011;14186;53.822;10.152;2022-07-29T00:56:41;4.93;;;2.40;;
26512;SDS011;14186;53.822;10.152;2022-07-29T01:01:42;4.10;;;1.98;;
26512;SDS011;14186;53.822;10.152;2022-07-29T01:06:42;5.33;;;2.47;;
26512;SDS011;14186;53.822;10.152;2022-07-29T01:11:44;4.25;;;2.55;;
26512;SDS011;14186;53.822;10.152;2022-07-29T01:16:45;9.63;;;2.58;;
26512;SDS011;14186;53.822;10.152;2022-07-29T01:21:50;8.40;;;3.03;;
26512;SDS011;14186;53.822;10.152;2022-07-29T01:26:54;8.30;;;3.10;;
26512;SDS011;14186;53.822;10.152;2022-07-29T01:31:58;6.88;;;3.05;;
26512;SDS011;14186;53.822;10.152;2022-07-29T01:37:03;6.05;;;3.40;;
26512;SDS011;14186;53.822;10.152;2022-07-29T01:42:06;6.68;;;3.85;;
26512;SDS011;14186;53.822;10.152;2022-07-29T01:47:11;11.60;;;3.67;;
26512;SDS011;14186;53.822;10.152;2022-07-29T01:52:13;7.72;;;3.65;;
26512;SDS011;14186;53.822;10.152;2022-07-29T01:57:15;5.78;;;3.67;;
26512;SDS011;14186;53.822;10.152;2022-07-29T02:02:18;11.00;;;4.10;;
26512;SDS011;14186;53.822;10.152;2022-07-29T02:07:19;7.07;;;3.53;;
26512;SDS011;14186;53.822;10.152;2022-07-29T02:12:19;7.30;;;4.15;;
26512;SDS011;14186;53.822;10.152;2022-07-29T02:17:22;9.30;;;4.60;;
26512;SDS011;14186;53.822;10.152;2022-07-29T02:22:23;7.50;;;4.45;;
26512;SDS011;14186;53.822;10.152;2022-07-29T02:27:24;9.50;;;3.85;;
26512;SDS011;14186;53.822;10.152;2022-07-29T02:32:26;7.88;;;4.10;;
26512;SDS011;14186;53.822;10.152;2022-07-29T02:37:27;7.72;;;4.03;;
26512;SDS011;14186;53.822;10.152;2022-07-29T02:42:28;10.23;;;4.03;;
26512;SDS011;14186;53.822;10.152;2022-07-29T02:47:30;8.63;;;4.22;;
26512;SDS011;14186;53.822;10.152;2022-07-29T02:52:31;8.10;;;4.28;;
26512;SDS011;14186;53.822;10.152;2022-07-29T02:57:36;9.10;;;4.65;;
26512;SDS011;14186;53.822;10.152;2022-07-29T03:02:44;8.98;;;4.32;;
26512;SDS011;14186;53.822;10.152;2022-07-29T03:07:45;12.02;;;5.07;;
26512;SDS011;14186;53.822;10.152;2022-07-29T03:12:47;11.77;;;4.70;;
26512;SDS011;14186;53.822;10.152;2022-07-29T03:17:49;9.82;;;5.55;;
26512;SDS011;14186;53.822;10.152;2022-07-29T03:22:49;7.18;;;4.30;;
26512;SDS011;14186;53.822;10.152;2022-07-29T03:27:50;12.68;;;4.40;;
26512;SDS011;14186;53.822;10.152;2022-07-29T03:32:51;7.22;;;3.30;;
26512;SDS011;14186;53.822;10.152;2022-07-29T03:37:52;10.85;;;4.18;;
26512;SDS011;14186;53.822;10.152;2022-07-29T03:42:52;8.50;;;4.40;;
26512;SDS011;14186;53.822;10.152;2022-07-29T03:47:57;9.23;;;3.97;;
26512;SDS011;14186;53.822;10.152;2022-07-29T03:52:59;10.57;;;4.10;;
26512;SDS011;14186;53.822;10.152;2022-07-29T03:57:59;7.25;;;3.65;;
26512;SDS011;14186;53.822;10.152;2022-07-29T04:03:02;12.15;;;4.85;;
26512;SDS011;14186;53.822;10.152;2022-07-29T04:08:03;6.40;;;3.80;;
26512;SDS011;14186;53.822;10.152;2022-07-29T04:13:04;9.57;;;3.78;;
26512;SDS011;14186;53.822;10.152;2022-07-29T04:18:05;9.57;;;4.25;;
26512;SDS011;14186;53.822;10.152;2022-07-29T04:23:05;6.97;;;3.67;;
26512;SDS011;14186;53.822;10.152;2022-07-29T04:28:06;13.00;;;5.13;;
26512;SDS011;14186;53.822;10.152;2022-07-29T04:33:08;8.95;;;3.55;;
26512;SDS011;14186;53.822;10.152;2022-07-29T04:38:08;7.70;;;3.65;;
26512;SDS011;14186;53.822;10.152;2022-07-29T04:43:08;8.80;;;3.75;;
26512;SDS011;14186;53.822;10.152;2022-07-29T04:48:10;7.27;;;3.00;;
26512;SDS011;14186;53.822;10.152;2022-07-29T04:53:10;7.32;;;2.80;;
26512;SDS011;14186;53.822;10.152;2022-07-29T04:58:10;8.13;;;2.47;;
26512;SDS011;14186;53.822;10.152;2022-07-29T05:03:12;5.47;;;2.45;;
26512;SDS011;14186;53.822;10.152;2022-07-29T05:08:12;9.60;;;2.53;;
26512;SDS011;14186;53.822;10.152;2022-07-29T05:13:12;6.57;;;2.45;;
26512;SDS011;14186;53.822;10.152;2022-07-29T05:18:14;9.93;;;2.80;;
26512;SDS011;14186;53.822;10.152;2022-07-29T05:23:14;10.18;;;2.65;;
26512;SDS011;14186;53.822;10.152;2022-07-29T05:28:14;5.00;;;2.10;;
26512;SDS011;14186;53.822;10.152;2022-07-29T05:33:16;9.70;;;2.17;;
26512;SDS011;14186;53.822;10.152;2022-07-29T05:38:16;9.48;;;2.47;;
26512;SDS011;14186;53.822;10.152;2022-07-29T05:43:16;5.60;;;2.23;;
26512;SDS011;14186;53.822;10.152;2022-07-29T05:48:18;5.40;;;2.50;;
26512;SDS011;14186;53.822;10.152;2022-07-29T05:53:18;4.30;;;2.00;;
26512;SDS011;14186;53.822;10.152;2022-07-29T05:58:18;7.00;;;2.63;;
26512;SDS011;14186;53.822;10.152;2022-07-29T06:03:20;10.53;;;2.10;;
26512;SDS011;14186;53.822;10.152;2022-07-29T06:08:20;10.98;;;3.63;;
26512;SDS011;14186;53.822;10.152;2022-07-29T06:13:20;5.15;;;1.88;;
26512;SDS011;14186;53.822;10.152;2022-07-29T06:18:22;8.32;;;2.10;;
26512;SDS011;14186;53.822;10.152;2022-07-29T06:23:22;4.00;;;1.77;;
26512;SDS011;14186;53.822;10.152;2022-07-29T06:28:22;6.80;;;2.00;;
26512;SDS011;14186;53.822;10.152;2022-07-29T06:33:24;9.45;;;2.20;;
26512;SDS011;14186;53.822;10.152;2022-07-29T06:38:24;7.63;;;1.92;;
26512;SDS011;14186;53.822;10.152;2022-07-29T06:43:25;6.40;;;1.98;;
26512;SDS011;14186;53.822;10.152;2022-07-29T06:48:27;13.32;;;2.65;;
26512;SDS011;14186;53.822;10.152;2022-07-29T06:53:28;22.38;;;4.85;;
26512;SDS011;14186;53.822;10.152;2022-07-29T06:58:28;11.82;;;2.30;;
26512;SDS011;14186;53.822;10.152;2022-07-29T07:03:30;16.38;;;2.70;;
26512;SDS011;14186;53.822;10.152;2022-07-29T07:08:30;5.78;;;1.88;;
26512;SDS011;14186;53.822;10.152;2022-07-29T07:13:31;9.13;;;1.70;;
26512;SDS011;14186;53.822;10.152;2022-07-29T07:18:32;9.13;;;1.98;;
26512;SDS011;14186;53.822;10.152;2022-07-29T07:23:33;9.98;;;2.30;;
26512;SDS011;14186;53.822;10.152;2022-07-29T07:28:33;5.15;;;1.52;;
26512;SDS011;14186;53.822;10.152;2022-07-29T07:33:34;8.45;;;1.67;;
26512;SDS011;14186;53.822;10.152;2022-07-29T07:38:35;5.65;;;1.77;;
26512;SDS011;14186;53.822;10.152;2022-07-29T07:43:35;6.70;;;1.25;;
26512;SDS011;14186;53.822;10.152;2022-07-29T07:48:37;8.63;;;1.88;;
26512;SDS011;14186;53.822;10.152;2022-07-29T07:53:37;4.85;;;1.55;;
26512;SDS011;14186;53.822;10.152;2022-07-29T07:58:37;6.18;;;1.55;;
26512;SDS011;14186;53.822;10.152;2022-07-29T08:03:39;8.25;;;1.65;;
26512;SDS011;14186;53.822;10.152;2022-07-29T08:08:39;5.10;;;2.08;;
26512;SDS011;14186;53.822;10.152;2022-07-29T08:13:39;3.83;;;1.38;;
26512;SDS011;14186;53.822;10.152;2022-07-29T08:18:41;6.57;;;1.80;;
26512;SDS011;14186;53.822;10.152;2022-07-29T08:23:42;4.50;;;1.80;;
26512;SDS011;14186;53.822;10.152;2022-07-29T08:28:43;5.10;;;1.73;;
26512;SDS011;14186;53.822;10.152;2022-07-29T08:33:44;5.93;;;1.80;;
26512;SDS011;14186;53.822;10.152;2022-07-29T08:38:45;5.18;;;1.80;;
26512;SDS011;14186;53.822;10.152;2022-07-29T08:43:45;6.32;;;1.63;;
26512;SDS011;14186;53.822;10.152;2022-07-29T08:48:47;5.15;;;1.40;;
26512;SDS011;14186;53.822;10.152;2022-07-29T08:53:47;5.55;;;2.20;;
26512;SDS011;14186;53.822;10.152;2022-07-29T08:58:49;5.63;;;1.60;;
26512;SDS011;14186;53.822;10.152;2022-07-29T09:03:50;4.15;;;1.38;;
26512;SDS011;14186;53.822;10.152;2022-07-29T09:08:54;4.80;;;1.60;;
26512;SDS011;14186;53.822;10.152;2022-07-29T09:13:55;9.38;;;2.47;;
26512;SDS011;14186;53.822;10.152;2022-07-29T09:18:57;4.05;;;1.50;;
26512;SDS011;14186;53.822;10.152;2022-07-29T09:24:02;9.60;;;2.30;;
26512;SDS011;14186;53.822;10.152;2022-07-29T09:29:07;6.35;;;1.60;;
26512;SDS011;14186;53.822;10.152;2022-07-29T09:34:09;8.02;;;1.73;;
26512;SDS011;14186;53.822;10.152;2022-07-29T09:39:10;4.18;;;1.92;;
26512;SDS011;14186;53.822;10.152;2022-07-29T09:44:10;6.63;;;2.28;;
26512;SDS011;14186;53.822;10.152;2022-07-29T09:49:12;6.45;;;1.98;;
26512;SDS011;14186;53.822;10.152;2022-07-29T09:54:22;6.60;;;1.90;;
26512;SDS011;14186;53.822;10.152;2022-07-29T09:59:22;3.88;;;1.52;;
26512;SDS011;14186;53.822;10.152;2022-07-29T10:04:23;7.35;;;1.73;;
26512;SDS011;14186;53.822;10.152;2022-07-29T10:09:24;5.65;;;1.85;;
26512;SDS011;14186;53.822;10.152;2022-07-29T10:14:24;3.55;;;1.33;;
26512;SDS011;14186;53.822;10.152;2022-07-29T10:19:26;4.82;;;1.35;;
26512;SDS011;14186;53.822;10.152;2022-07-29T10:24:26;6.15;;;1.60;;
26512;SDS011;14186;53.822;10.152;2022-07-29T10:29:28;4.65;;;1.40;;
26512;SDS011;14186;53.822;10.152;2022-07-29T10:34:33;8.05;;;2.58;;
26512;SDS011;14186;53.822;10.152;2022-07-29T10:39:40;6.97;;;1.80;;
26512;SDS011;14186;53.822;10.152;2022-07-29T10:44:42;6.03;;;1.60;;
26512;SDS011;14186;53.822;10.152;2022-07-29T10:49:52;6.93;;;1.50;;
26512;SDS011;14186;53.822;10.152;2022-07-29T10:54:54;9.68;;;1.63;;
26512;SDS011;14186;53.822;10.152;2022-07-29T11:05:16;3.95;;;1.20;;
26512;SDS011;14186;53.822;10.152;2022-07-29T11:10:19;5.97;;;1.55;;
26512;SDS011;14186;53.822;10.152;2022-07-29T11:15:20;3.73;;;1.37;;
26512;SDS011;14186;53.822;10.152;2022-07-29T11:20:31;10.40;;;2.00;;
26512;SDS011;14186;53.822;10.152;2022-07-29T11:25:31;4.82;;;1.38;;
26512;SDS011;14186;53.822;10.152;2022-07-29T11:30:46;9.93;;;1.85;;
26512;SDS011;14186;53.822;10.152;2022-07-29T11:36:00;6.32;;;1.70;;
26512;SDS011;14186;53.822;10.152;2022-07-29T11:51:57;4.05;;;1.42;;
26512;SDS011;14186;53.822;10.152;2022-07-29T11:56:58;5.90;;;1.50;;
26512;SDS011;14186;53.822;10.152;2022-07-29T12:01:58;3.60;;;1.33;;
26512;SDS011;14186;53.822;10.152;2022-07-29T12:07:00;4.85;;;1.42;;
26512;SDS011;14186;53.822;10.152;2022-07-29T12:12:00;3.00;;;1.20;;
26512;SDS011;14186;53.822;10.152;2022-07-29T12:17:01;3.67;;;1.35;;
26512;SDS011;14186;53.822;10.152;2022-07-29T12:22:02;6.63;;;1.77;;
26512;SDS011;14186;53.822;10.152;2022-07-29T12:27:02;5.45;;;1.50;;
26512;SDS011;14186;53.822;10.152;2022-07-29T12:32:03;6.13;;;1.67;;
26512;SDS011;14186;53.822;10.152;2022-07-29T12:37:05;5.07;;;1.90;;
26512;SDS011;14186;53.822;10.152;2022-07-29T12:42:10;6.00;;;1.50;;
26512;SDS011;14186;53.822;10.152;2022-07-29T12:47:10;3.30;;;1.20;;
26512;SDS011;14186;53.822;10.152;2022-07-29T12:52:25;7.68;;;1.55;;
26512;SDS011;14186;53.822;10.152;2022-07-29T13:02:25;4.47;;;1.52;;
26512;SDS011;14186;53.822;10.152;2022-07-29T13:07:28;7.22;;;1.65;;
26512;SDS011;14186;53.822;10.152;2022-07-29T13:12:28;4.53;;;1.45;;
26512;SDS011;14186;53.822;10.152;2022-07-29T13:17:29;4.97;;;1.70;;
26512;SDS011;14186;53.822;10.152;2022-07-29T13:22:41;5.82;;;1.60;;
26512;SDS011;14186;53.822;10.152;2022-07-29T13:27:41;6.57;;;1.60;;
26512;SDS011;14186;53.822;10.152;2022-07-29T13:32:41;3.78;;;1.45;;
26512;SDS011;14186;53.822;10.152;2022-07-29T13:37:43;5.65;;;1.83;;
26512;SDS011;14186;53.822;10.152;2022-07-29T13:42:43;8.05;;;1.92;;
26512;SDS011;14186;53.822;10.152;2022-07-29T13:47:43;5.00;;;1.70;;
26512;SDS011;14186;53.822;10.152;2022-07-29T13:52:45;3.33;;;1.67;;
26512;SDS011;14186;53.822;10.152;2022-07-29T13:57:45;4.30;;;1.40;;
26512;SDS011;14186;53.822;10.152;2022-07-29T14:02:46;5.47;;;1.40;;
26512;SDS011;14186;53.822;10.152;2022-07-29T14:07:47;6.28;;;1.65;;
26512;SDS011;14186;53.822;10.152;2022-07-29T14:12:47;4.35;;;1.30;;
26512;SDS011;14186;53.822;10.152;2022-07-29T14:17:48;6.85;;;1.52;;
26512;SDS011;14186;53.822;10.152;2022-07-29T14:22:49;4.20;;;1.40;;
26512;SDS011;14186;53.822;10.152;2022-07-29T14:27:50;5.70;;;1.50;;
26512;SDS011;14186;53.822;10.152;2022-07-29T14:32:50;4.80;;;1.33;;
26512;SDS011;14186;53.822;10.152;2022-07-29T14:37:51;6.30;;;2.00;;
26512;SDS011;14186;53.822;10.152;2022-07-29T14:42:51;6.32;;;1.63;;
26512;SDS011;14186;53.822;10.152;2022-07-29T14:47:52;5.13;;;1.52;;
26512;SDS011;14186;53.822;10.152;2022-07-29T14:52:53;5.78;;;1.65;;
26512;SDS011;14186;53.822;10.152;2022-07-29T14:57:54;6.35;;;1.70;;
26512;SDS011;14186;53.822;10.152;2022-07-29T15:02:54;4.75;;;1.60;;
26512;SDS011;14186;53.822;10.152;2022-07-29T15:07:55;3.72;;;1.48;;
26512;SDS011;14186;53.822;10.152;2022-07-29T15:12:56;5.57;;;1.55;;
26512;SDS011;14186;53.822;10.152;2022-07-29T15:17:56;4.32;;;1.38;;
26512;SDS011;14186;53.822;10.152;2022-07-29T15:22:57;6.03;;;1.85;;
26512;SDS011;14186;53.822;10.152;2022-07-29T15:27:58;4.70;;;1.95;;
26512;SDS011;14186;53.822;10.152;2022-07-29T15:32:58;7.45;;;2.15;;
26512;SDS011;14186;53.822;10.152;2022-07-29T15:38:00;6.25;;;2.10;;
26512;SDS011;14186;53.822;10.152;2022-07-29T15:43:01;6.15;;;1.40;;
26512;SDS011;14186;53.822;10.152;2022-07-29T15:48:04;4.47;;;1.50;;
26512;SDS011;14186;53.822;10.152;2022-07-29T15:53:06;6.28;;;1.38;;
26512;SDS011;14186;53.822;10.152;2022-07-29T15:58:06;6.30;;;1.75;;
26512;SDS011;14186;53.822;10.152;2022-07-29T16:03:06;4.78;;;1.58;;
26512;SDS011;14186;53.822;10.152;2022-07-29T16:08:12;5.00;;;1.60;;
26512;SDS011;14186;53.822;10.152;2022-07-29T16:13:12;4.13;;;1.77;;
26512;SDS011;14186;53.822;10.152;2022-07-29T16:18:13;6.03;;;1.63;;
26512;SDS011;14186;53.822;10.152;2022-07-29T16:23:15;5.33;;;1.53;;
26512;SDS011;14186;53.822;10.152;2022-07-29T16:28:15;4.68;;;1.70;;
26512;SDS011;14186;53.822;10.152;2022-07-29T16:33:15;8.65;;;1.52;;
26512;SDS011;14186;53.822;10.152;2022-07-29T16:38:17;6.15;;;1.55;;
26512;SDS011;14186;53.822;10.152;2022-07-29T16:43:17;6.07;;;1.90;;
26512;SDS011;14186;53.822;10.152;2022-07-29T16:48:18;5.82;;;1.52;;
26512;SDS011;14186;53.822;10.152;2022-07-29T16:53:19;5.00;;;1.55;;
26512;SDS011;14186;53.822;10.152;2022-07-29T16:58:19;5.13;;;1.52;;
26512;SDS011;14186;53.822;10.152;2022-07-29T17:03:20;3.33;;;1.55;;
26512;SDS011;14186;53.822;10.152;2022-07-29T17:08:21;3.50;;;1.40;;
26512;SDS011;14186;53.822;10.152;2022-07-29T17:13:22;5.40;;;1.42;;
26512;SDS011;14186;53.822;10.152;2022-07-29T17:18:22;4.85;;;1.58;;
26512;SDS011;14186;53.822;10.152;2022-07-29T17:23:24;3.60;;;1.38;;
26512;SDS011;14186;53.822;10.152;2022-07-29T17:28:24;6.28;;;1.60;;
26512;SDS011;14186;53.822;10.152;2022-07-29T17:33:24;6.65;;;1.40;;
26512;SDS011;14186;53.822;10.152;2022-07-29T17:38:26;9.68;;;1.58;;
26512;SDS011;14186;53.822;10.152;2022-07-29T17:43:26;6.45;;;1.77;;
26512;SDS011;14186;53.822;10.152;2022-07-29T17:48:26;8.38;;;1.60;;
26512;SDS011;14186;53.822;10.152;2022-07-29T17:53:28;4.68;;;1.33;;
26512;SDS011;14186;53.822;10.152;2022-07-29T17:58:28;6.65;;;1.48;;
26512;SDS011;14186;53.822;10.152;2022-07-29T18:03:28;5.63;;;1.63;;
26512;SDS011;14186;53.822;10.152;2022-07-29T18:08:30;3.40;;;1.42;;
26512;SDS011;14186;53.822;10.152;2022-07-29T18:13:31;2.05;;;1.30;;
26512;SDS011;14186;53.822;10.152;2022-07-29T18:18:31;4.47;;;1.53;;
26512;SDS011;14186;53.822;10.152;2022-07-29T18:23:33;7.10;;;1.60;;
26512;SDS011;14186;53.822;10.152;2022-07-29T18:28:33;5.60;;;1.30;;
26512;SDS011;14186;53.822;10.152;2022-07-29T18:33:33;9.15;;;1.45;;
26512;SDS011;14186;53.822;10.152;2022-07-29T18:38:35;4.68;;;1.50;;
26512;SDS011;14186;53.822;10.152;2022-07-29T18:43:35;6.90;;;1.77;;
26512;SDS011;14186;53.822;10.152;2022-07-29T18:48:35;5.93;;;1.60;;
26512;SDS011;14186;53.822;10.152;2022-07-29T18:53:37;5.95;;;1.30;;
26512;SDS011;14186;53.822;10.152;2022-07-29T18:58:37;7.18;;;1.70;;
26512;SDS011;14186;53.822;10.152;2022-07-29T19:03:37;4.35;;;1.67;;
26512;SDS011;14186;53.822;10.152;2022-07-29T19:08:39;5.07;;;1.73;;
26512;SDS011;14186;53.822;10.152;2022-07-29T19:13:39;5.30;;;1.80;;
26512;SDS011;14186;53.822;10.152;2022-07-29T19:18:40;4.85;;;1.60;;
26512;SDS011;14186;53.822;10.152;2022-07-29T19:23:41;6.82;;;1.70;;
26512;SDS011;14186;53.822;10.152;2022-07-29T19:28:42;9.50;;;2.15;;
26512;SDS011;14186;53.822;10.152;2022-07-29T19:33:42;7.47;;;2.03;;
26512;SDS011;14186;53.822;10.152;2022-07-29T19:38:43;7.65;;;1.70;;
26512;SDS011;14186;53.822;10.152;2022-07-29T19:43:44;4.10;;;1.58;;
26512;SDS011;14186;53.822;10.152;2022-07-29T19:48:44;7.82;;;2.00;;
26512;SDS011;14186;53.822;10.152;2022-07-29T19:53:46;5.68;;;2.00;;
26512;SDS011;14186;53.822;10.152;2022-07-29T19:58:46;7.85;;;2.10;;
26512;SDS011;14186;53.822;10.152;2022-07-29T20:03:46;5.50;;;1.77;;
26512;SDS011;14186;53.822;10.152;2022-07-29T20:08:48;5.25;;;1.58;;
26512;SDS011;14186;53.822;10.152;2022-07-29T20:13:48;9.85;;;1.80;;
26512;SDS011;14186;53.822;10.152;2022-07-29T20:18:48;8.18;;;1.85;;
26512;SDS011;14186;53.822;10.152;2022-07-29T20:23:50;7.85;;;2.03;;
26512;SDS011;14186;53.822;10.152;2022-07-29T20:28:50;7.28;;;1.60;;
26512;SDS011;14186;53.822;10.152;2022-07-29T20:33:50;7.32;;;2.00;;
26512;SDS011;14186;53.822;10.152;2022-07-29T20:38:52;5.97;;;1.92;;
26512;SDS011;14186;53.822;10.152;2022-07-29T20:43:52;6.57;;;2.47;;
26512;SDS011;14186;53.822;10.152;2022-07-29T20:48:53;6.25;;;2.20;;
26512;SDS011;14186;53.822;10.152;2022-07-29T20:53:54;4.63;;;2.13;;
26512;SDS011;14186;53.822;10.152;2022-07-29T20:58:54;8.75;;;2.22;;
26512;SDS011;14186;53.822;10.152;2022-07-29T21:03:55;9.38;;;2.05;;
26512;SDS011;14186;53.822;10.152;2022-07-29T21:08:56;7.13;;;2.35;;
26512;SDS011;14186;53.822;10.152;2022-07-29T21:13:57;8.32;;;2.28;;
26512;SDS011;14186;53.822;10.152;2022-07-29T21:18:57;7.65;;;2.78;;
26512;SDS011;14186;53.822;10.152;2022-07-29T21:23:59;7.82;;;2.65;;
26512;SDS011;14186;53.822;10.152;2022-07-29T21:28:59;10.82;;;2.90;;
26512;SDS011;14186;53.822;10.152;2022-07-29T21:33:59;6.53;;;2.67;;
26512;SDS011;14186;53.822;10.152;2022-07-29T21:39:01;5.68;;;2.58;;
26512;SDS011;14186;53.822;10.152;2022-07-29T21:44:01;6.57;;;2.38;;
26512;SDS011;14186;53.822;10.152;2022-07-29T21:49:01;7.65;;;3.20;;
26512;SDS011;14186;53.822;10.152;2022-07-29T21:54:03;8.70;;;2.65;;
26512;SDS011;14186;53.822;10.152;2022-07-29T21:59:03;10.02;;;3.17;;
26512;SDS011;14186;53.822;10.152;2022-07-29T22:04:03;10.50;;;4.18;;
26512;SDS011;14186;53.822;10.152;2022-07-29T22:09:05;9.05;;;2.60;;
26512;SDS011;14186;53.822;10.152;2022-07-29T22:14:05;7.82;;;2.95;;
26512;SDS011;14186;53.822;10.152;2022-07-29T22:19:06;9.82;;;3.22;;
26512;SDS011;14186;53.822;10.152;2022-07-29T22:24:08;9.88;;;3.00;;
26512;SDS011;14186;53.822;10.152;2022-07-29T22:29:08;8.20;;;2.97;;
26512;SDS011;14186;53.822;10.152;2022-07-29T22:34:08;5.68;;;2.70;;
26512;SDS011;14186;53.822;10.152;2022-07-29T22:39:10;10.02;;;2.88;;
26512;SDS011;14186;53.822;10.152;2022-07-29T22:44:10;10.52;;;2.72;;
26512;SDS011;14186;53.822;10.152;2022-07-29T22:49:10;8.20;;;3.00;;
26512;SDS011;14186;53.822;10.152;2022-07-29T22:54:12;14.25;;;3.88;;
26512;SDS011;14186;53.822;10.152;2022-07-29T22:59:12;8.13;;;3.28;;
26512;SDS011;14186;53.822;10.152;2022-07-29T23:04:12;10.38;;;3.33;;
26512;SDS011;14186;53.822;10.152;2022-07-29T23:09:14;11.25;;;3.50;;
26512;SDS011;14186;53.822;10.152;2022-07-29T23:14:14;14.10;;;3.30;;
26512;SDS011;14186;53.822;10.152;2022-07-29T23:19:14;7.67;;;3.53;;
26512;SDS011;14186;53.822;10.152;2022-07-29T23:24:16;9.18;;;4.07;;
26512;SDS011;14186;53.822;10.152;2022-07-29T23:29:16;6.95;;;2.80;;
26512;SDS011;14186;53.822;10.152;2022-07-29T23:34:16;6.65;;;3.13;;
26512;SDS011;14186;53.822;10.152;2022-07-29T23:39:18;8.50;;;3.53;;
26512;SDS011;14186;53.822;10.152;2022-07-29T23:44:18;11.88;;;3.42;;
26512;SDS011;14186;53.822;10.152;2022-07-29T23:49:19;7.53;;;3.58;;
26512;SDS011;14186;53.822;10.152;2022-07-29T23:54:20;8.68;;;3.38;;
26512;SDS011;14186;53.822;10.152;2022-07-29T23:59:20;10.93;;;3.28;;
